Date,TemperatureHighF,TemperatureAvgF,TemperatureLowF,DewpointHighF,DewpointAvgF,DewpointLowF,HumidityHigh,HumidityAvg,HumidityLow,PressureMaxIn,PressureMinIn,WindSpeedMaxMPH,WindSpeedAvgMPH,GustSpeedMaxMPH,PrecipitationSumIn
2013-3-1,53.4,49.4,43.5,49.1,45.9,40.8,92,88,84,30.31,30.23,13,2,13,0.26
2013-3-2,56.3,46.5,40.8,48.1,42.2,36.8,89,85,70,30.25,29.99,12,2,12,0.68
2013-3-3,47.8,39.7,31.2,40.4,34.7,27.8,89,82,65,30.30,30.14,10,1,10,0.06
2013-3-4,53.4,39.9,31.2,37.5,31.7,27.8,88,74,50,30.29,29.95,13,2,13,0.02
2013-3-5,55.5,45.0,38.1,38.7,33.7,29.5,80,65,46,29.95,29.71,58,2,58,0.00
2013-3-6,45.8,42.2,38.4,41.3,37.0,33.0,86,82,75,29.86,29.57,8,1,8,0.19
2013-3-7,51.8,42.1,33.2,44.3,37.4,29.4,88,84,73,30.09,29.86,9,0,9,0.09
2013-3-8,55.2,40.6,31.8,42.6,34.2,28.0,89,79,59,30.22,30.05,14,1,14,0.00
2013-3-9,56.4,40.3,29.3,42.0,32.7,25.3,88,76,55,30.48,30.22,12,1,12,0.03
2013-3-10,48.9,42.4,34.3,41.2,36.5,29.6,85,80,72,30.47,30.38,9,1,9,0.00
2013-3-11,57.2,45.9,36.5,40.9,38.3,32.6,88,76,53,30.42,30.15,11,1,11,0.02
2013-3-12,48.2,45.1,42.0,45.1,41.8,38.4,90,88,84,30.15,30.04,9,1,9,1.36
2013-3-13,53.4,49.2,46.0,49.9,46.2,43.2,90,89,88,30.17,30.08,4,0,4,0.68
2013-3-14,53.4,48.8,46.5,50.2,45.8,43.5,91,89,86,30.13,30.01,6,0,6,0.32
2013-3-15,59.7,50.9,45.6,51.8,46.5,42.9,90,85,70,30.19,30.09,8,0,8,0.18
2013-3-16,52.5,45.2,37.9,47.1,41.4,34.0,89,87,77,30.09,29.81,12,2,12,0.80
2013-3-17,44.9,39.2,35.4,40.1,35.5,32.1,89,87,81,30.16,29.90,9,2,9,1.17
2013-3-18,51.4,41.0,34.3,41.4,35.4,30.2,89,81,54,30.23,30.04,14,2,14,0.44
2013-3-19,52.7,41.6,34.3,40.0,33.8,29.8,87,75,53,30.23,29.61,17,4,17,0.08
2013-3-20,55.4,44.0,38.4,46.7,38.4,34.0,90,81,59,29.97,29.40,18,3,20,1.14
2013-3-21,46.2,38.7,34.7,39.4,34.1,30.7,86,84,75,30.16,29.96,9,2,9,0.60
2013-3-22,49.6,38.2,31.2,38.9,32.3,27.1,88,80,60,30.36,30.15,15,1,15,0.37
2013-3-23,53.2,38.5,30.0,33.9,29.7,26.3,87,73,44,30.38,30.27,10,1,10,0.00
2013-3-24,57.3,41.5,32.7,37.3,31.5,27.5,83,70,42,30.30,30.11,11,2,11,0.00
2013-3-25,63.3,45.6,34.7,38.2,33.4,28.6,80,65,38,30.14,29.90,12,2,12,0.00
2013-3-26,64.5,48.8,37.5,42.8,37.0,31.6,79,66,43,30.00,29.92,15,2,15,0.00
2013-3-27,60.0,49.6,39.7,45.6,40.3,34.6,83,71,56,29.98,29.91,58,1,58,0.00
2013-3-28,65.8,51.0,39.0,49.3,41.8,34.3,84,72,52,30.14,29.98,12,1,12,0.08
2013-3-29,66.9,51.8,39.0,49.0,42.7,35.1,87,73,51,30.24,30.14,14,1,14,0.00
2013-3-30,72.3,53.2,39.7,47.2,40.9,35.1,84,66,39,30.25,30.06,10,2,10,0.00
2013-3-31,75.0,56.1,42.2,48.6,41.3,34.7,76,60,37,30.07,29.87,12,2,12,0.00